Time;durP1;ratioP1;P1;durP2;ratioP2;P2;SDS_P1;SDS_P2;PMS_P1;PMS_P2;Temp;Humidity;BMP_temperature;BMP_pressure;BME280_temperature;BME280_humidity;BME280_pressure;Samples;Min_cycle;Max_cycle;Signal;HPM_P1;HPM_P2
2022/01/10 00:00:09;;;;;;;96.30;41.83;;;;;;;-4.89;75.70;98232.83;2271873;78;21366;-82
2022/01/10 00:03:11;;;;;;;95.47;42.50;;;;;;;-4.92;75.98;98237.73;2245171;78;20927;-83
2022/01/10 00:06:11;;;;;;;86.10;40.37;;;;;;;-4.97;76.89;98236.17;2272442;78;20995;-84
2022/01/10 00:09:12;;;;;;;102.70;43.90;;;;;;;-5.01;76.35;98237.16;2272581;78;20943;-82
2022/01/10 00:12:12;;;;;;;90.50;38.77;;;;;;;-5.07;76.61;98237.66;2272872;78;20951;-82
2022/01/10 00:15:15;;;;;;;120.73;52.53;;;;;;;-5.07;77.14;98241.48;2272781;78;20978;-83
2022/01/10 00:18:15;;;;;;;103.00;44.90;;;;;;;-5.09;77.09;98236.69;2271377;78;21010;-83
2022/01/10 00:21:16;;;;;;;101.67;44.53;;;;;;;-5.12;77.58;98238.16;2272015;78;20935;-83
2022/01/10 00:24:16;;;;;;;98.83;42.00;;;;;;;-5.15;78.09;98246.48;2272439;78;20999;-83
2022/01/10 00:27:17;;;;;;;93.07;41.87;;;;;;;-5.18;77.72;98250.98;2271912;78;21109;-83
2022/01/10 00:30:17;;;;;;;97.43;40.60;;;;;;;-5.21;78.05;98252.42;2272675;78;20974;-83
2022/01/10 00:33:17;;;;;;;97.97;43.47;;;;;;;-5.21;78.88;98263.87;2272689;78;20982;-83
2022/01/10 00:36:18;;;;;;;90.23;40.30;;;;;;;-5.19;78.47;98263.61;2272712;78;20982;-82
2022/01/10 00:39:18;;;;;;;90.30;41.03;;;;;;;-5.19;78.06;98265.77;2272607;78;20994;-83
2022/01/10 00:42:19;;;;;;;107.40;45.03;;;;;;;-5.18;78.20;98270.06;2272362;78;21388;-83
2022/01/10 00:45:23;;;;;;;92.47;38.50;;;;;;;-5.17;78.20;98263.31;2272448;78;20974;-83
2022/01/10 00:48:22;;;;;;;92.47;40.53;;;;;;;-5.17;77.96;98273.50;2271039;78;21378;-83
2022/01/10 00:51:22;;;;;;;97.43;41.57;;;;;;;-5.15;77.66;98277.02;2272406;78;20959;-83
2022/01/10 00:54:23;;;;;;;95.90;42.37;;;;;;;-5.15;77.53;98284.26;2272586;78;20935;-83
2022/01/10 00:57:23;;;;;;;90.63;39.70;;;;;;;-5.17;77.52;98276.92;2272169;78;21006;-83
2022/01/10 01:00:24;;;;;;;89.47;38.20;;;;;;;-5.19;77.19;98286.12;2272567;78;21337;-83
2022/01/10 01:03:24;;;;;;;91.70;41.20;;;;;;;-5.22;77.24;98286.28;2272625;78;21311;-82
2022/01/10 01:06:25;;;;;;;97.60;42.33;;;;;;;-5.23;77.06;98290.88;2272718;78;20982;-84
2022/01/10 01:09:29;;;;;;;92.33;38.80;;;;;;;-5.27;77.20;98293.63;2272605;78;21319;-82
2022/01/10 01:13:23;;;;;;;96.70;41.30;;;;;;;-5.27;77.14;98291.08;2272203;78;21007;-82
2022/01/10 01:15:32;;;;;;;91.50;38.40;;;;;;;-5.30;77.02;98287.06;2267570;78;21449;-82
2022/01/10 01:24:59;;;;;;;102.83;42.47;;;;;;;-5.26;77.10;98289.02;2272245;78;20994;-81
2022/01/10 01:28:00;;;;;;;91.60;39.67;;;;;;;-5.26;76.88;98296.66;2270418;78;21003;-83
2022/01/10 01:31:00;;;;;;;85.50;39.47;;;;;;;-5.21;76.70;98300.77;2267732;78;20954;-82
2022/01/10 01:34:01;;;;;;;82.07;37.73;;;;;;;-5.18;76.47;98303.54;2267743;78;20975;-82
2022/01/10 01:37:01;;;;;;;79.33;36.80;;;;;;;-5.22;75.58;98301.16;2267772;78;20963;-81
2022/01/10 01:40:02;;;;;;;91.73;36.90;;;;;;;-5.29;75.69;98303.21;2268085;78;20998;-83
2022/01/10 01:43:03;;;;;;;91.17;41.07;;;;;;;-5.34;75.54;98304.19;2268071;78;20967;-82
2022/01/10 01:46:03;;;;;;;93.40;39.77;;;;;;;-5.38;75.46;98308.59;2267816;78;21377;-81
2022/01/10 01:49:04;;;;;;;85.27;37.53;;;;;;;-5.41;75.28;98316.41;2268240;78;20940;-82
2022/01/10 01:52:04;;;;;;;80.50;36.57;;;;;;;-5.48;74.97;98321.48;2268151;78;20936;-82
2022/01/10 01:55:05;;;;;;;83.40;37.87;;;;;;;-5.57;74.64;98316.69;2268248;78;20927;-82
2022/01/10 01:58:05;;;;;;;90.60;38.20;;;;;;;-5.65;74.91;98323.31;2268321;78;21386;-82
2022/01/10 02:01:06;;;;;;;92.50;39.40;;;;;;;-5.69;75.37;98323.90;2268249;78;20963;-82
2022/01/10 02:04:06;;;;;;;92.03;39.80;;;;;;;-5.71;75.67;98327.61;2268402;78;20967;-82
2022/01/10 02:07:07;;;;;;;84.83;38.53;;;;;;;-5.74;75.59;98327.41;2267995;78;20971;-82
2022/01/10 02:10:07;;;;;;;82.17;37.97;;;;;;;-5.73;75.67;98329.56;2267789;78;20947;-82
2022/01/10 02:13:08;;;;;;;81.87;35.27;;;;;;;-5.73;75.61;98335.91;2268096;78;20939;-83
2022/01/10 02:16:10;;;;;;;120.57;39.73;;;;;;;-5.75;75.34;98334.94;2268627;78;20924;-82
2022/01/10 02:19:10;;;;;;;86.07;36.57;;;;;;;-5.75;75.19;98344.71;2268280;78;21038;-83
2022/01/10 02:22:11;;;;;;;87.27;37.10;;;;;;;-5.71;75.41;98350.49;2268542;78;20971;-83
2022/01/10 02:25:11;;;;;;;96.03;41.47;;;;;;;-5.71;75.45;98354.30;2268583;78;20983;-82
2022/01/10 02:28:12;;;;;;;90.23;41.63;;;;;;;-5.76;75.21;98353.11;2270214;78;21018;-83
2022/01/10 02:31:13;;;;;;;95.00;40.67;;;;;;;-5.74;75.30;98362.12;2272851;78;20955;-83
2022/01/10 02:34:18;;;;;;;77.97;36.23;;;;;;;-5.65;75.20;98364.00;2272861;78;21596;-83
2022/01/10 02:37:16;;;;;;;85.00;37.87;;;;;;;-5.66;74.42;98371.14;2272393;78;20971;-83
2022/01/10 02:40:19;;;;;;;87.77;40.10;;;;;;;-5.70;73.99;98374.25;2272591;78;21311;-83
2022/01/10 02:43:19;;;;;;;88.73;37.00;;;;;;;-5.80;74.16;98371.09;2272889;78;21039;-83
2022/01/10 02:46:20;;;;;;;95.10;40.53;;;;;;;-5.83;73.86;98377.63;2273045;78;21322;-83
2022/01/10 02:49:20;;;;;;;90.07;39.17;;;;;;;-5.92;73.76;98380.47;2272918;78;21381;-84
2022/01/10 02:52:21;;;;;;;84.23;39.37;;;;;;;-5.97;73.79;98381.81;2273007;78;21319;-83
2022/01/10 02:55:21;;;;;;;98.67;41.37;;;;;;;-6.01;73.89;98383.66;2273303;78;20943;-83
2022/01/10 02:58:22;;;;;;;95.63;40.43;;;;;;;-6.01;74.11;98379.84;2272394;78;21006;-83
2022/01/10 03:01:22;;;;;;;94.47;40.90;;;;;;;-6.01;73.83;98386.20;2272421;78;20963;-82
2022/01/10 03:04:23;;;;;;;82.97;39.10;;;;;;;-6.04;73.63;98385.11;2272820;78;21362;-83
2022/01/10 03:07:23;;;;;;;92.57;41.67;;;;;;;-6.06;73.54;98391.36;2272597;78;21378;-82
2022/01/10 03:10:24;;;;;;;79.60;37.30;;;;;;;-6.11;73.50;98389.73;2272781;78;20971;-82
2022/01/10 03:13:24;;;;;;;93.97;40.43;;;;;;;-6.11;73.44;98392.27;2272956;78;20994;-82
2022/01/10 03:16:25;;;;;;;98.73;40.13;;;;;;;-6.17;73.03;98393.52;2272882;78;20982;-83
2022/01/10 03:19:25;;;;;;;96.90;41.93;;;;;;;-6.22;73.21;98397.01;2272876;78;20933;-82
2022/01/10 03:22:26;;;;;;;96.73;40.33;;;;;;;-6.23;73.32;98403.25;2272844;78;20991;-82
2022/01/10 03:25:27;;;;;;;92.60;39.47;;;;;;;-6.20;73.20;98408.55;2272737;78;20947;-82
2022/01/10 03:28:27;;;;;;;91.57;40.20;;;;;;;-6.24;72.94;98413.80;2272548;78;21003;-82
2022/01/10 03:31:28;;;;;;;92.30;40.73;;;;;;;-6.28;72.94;98421.98;2272706;78;20939;-83
2022/01/10 03:34:29;;;;;;;93.67;38.00;;;;;;;-6.31;72.97;98428.12;2272825;78;21399;-82
2022/01/10 03:37:29;;;;;;;87.27;35.90;;;;;;;-6.32;73.22;98433.09;2272684;78;20930;-83
2022/01/10 03:40:30;;;;;;;78.60;36.13;;;;;;;-6.30;73.24;98438.77;2272084;78;20978;-82
2022/01/10 03:43:30;;;;;;;182.80;83.13;;;;;;;-6.28;72.90;98441.42;2272568;78;21315;-82
2022/01/10 03:46:34;;;;;;;119.93;43.27;;;;;;;-6.30;72.46;98449.32;2272202;78;20955;-82
2022/01/10 03:49:33;;;;;;;70.53;34.57;;;;;;;-6.34;72.24;98448.22;2272160;78;21008;-82
2022/01/10 03:52:33;;;;;;;137.53;38.70;;;;;;;-6.35;72.50;98451.53;2272808;78;20920;-82
2022/01/10 03:55:34;;;;;;;80.43;36.07;;;;;;;-6.34;72.48;98462.19;2272583;78;21335;-82
2022/01/10 03:58:34;;;;;;;73.90;33.83;;;;;;;-6.32;72.48;98465.72;2272489;78;21034;-82
2022/01/10 04:01:39;;;;;;;87.57;36.80;;;;;;;-6.36;71.90;98476.44;2273158;78;20971;-82
2022/01/10 04:04:39;;;;;;;80.67;35.30;;;;;;;-6.46;72.04;98481.25;2273026;78;21425;-83
2022/01/10 04:07:40;;;;;;;75.60;34.43;;;;;;;-6.48;72.21;98486.99;2272093;78;21005;-83
2022/01/10 04:10:40;;;;;;;85.90;34.00;;;;;;;-6.48;72.31;98495.49;2272508;78;20946;-82
2022/01/10 04:13:41;;;;;;;74.70;33.63;;;;;;;-6.49;72.48;98496.66;2272321;78;20907;-83
2022/01/10 04:16:41;;;;;;;77.37;33.83;;;;;;;-6.48;72.44;98500.95;2273016;78;20966;-83
2022/01/10 04:19:44;;;;;;;76.90;32.43;;;;;;;-6.46;72.42;98510.84;2273482;78;21329;-82
2022/01/10 04:22:45;;;;;;;71.17;32.03;;;;;;;-6.47;71.90;98508.69;2273083;78;21030;-83
2022/01/10 04:25:45;;;;;;;77.53;33.37;;;;;;;-6.54;71.18;98514.09;2273205;78;20975;-83
2022/01/10 04:28:46;;;;;;;69.40;31.60;;;;;;;-6.62;71.28;98517.73;2270730;78;21014;-83
2022/01/10 04:31:46;;;;;;;74.00;32.73;;;;;;;-6.65;71.68;98522.98;2268369;78;21023;-82
2022/01/10 04:34:51;;;;;;;75.27;32.83;;;;;;;-6.64;71.85;98520.55;2268109;78;20955;-81
2022/01/10 04:37:49;;;;;;;74.57;31.47;;;;;;;-6.63;71.88;98530.31;2266942;78;21018;-79
2022/01/10 04:40:49;;;;;;;78.63;33.47;;;;;;;-5.86;76.98;98515.95;2267566;78;21425;-80
2022/01/10 04:43:56;;;;;;;86.47;38.30;;;;;;;-5.99;72.52;98529.87;2267447;78;21378;-81
2022/01/10 04:46:57;;;;;;;71.80;31.80;;;;;;;-6.15;71.70;98535.50;2268369;78;21033;-81
2022/01/10 04:53:02;;;;;;;78.27;35.50;;;;;;;-6.43;71.61;98547.88;2236790;78;20943;-83
2022/01/10 04:56:03;;;;;;;81.37;36.80;;;;;;;-6.44;72.23;98557.16;2267246;78;20928;-82
2022/01/10 04:59:04;;;;;;;74.20;32.50;;;;;;;-6.45;72.31;98565.93;2267343;78;20975;-82
2022/01/10 05:02:04;;;;;;;221.60;44.07;;;;;;;-6.43;72.22;98574.16;2266422;78;21009;-82
2022/01/10 05:05:05;;;;;;;79.50;36.50;;;;;;;-6.43;72.10;98579.62;2266539;78;21397;-83
2022/01/10 05:08:05;;;;;;;87.60;38.03;;;;;;;-6.47;71.58;98585.25;2266760;78;21362;-83
2022/01/10 05:11:06;;;;;;;92.07;39.20;;;;;;;-6.47;71.67;98589.95;2266710;78;21355;-82
2022/01/10 05:14:06;;;;;;;85.50;36.63;;;;;;;-6.46;71.55;98599.33;2266766;78;20999;-82
2022/01/10 05:17:07;;;;;;;70.77;33.73;;;;;;;-6.50;71.39;98599.00;2266980;78;20967;-83
2022/01/10 05:20:07;;;;;;;120.20;38.63;;;;;;;-6.51;71.43;98609.92;2266381;78;20999;-82
2022/01/10 05:23:08;;;;;;;82.77;35.77;;;;;;;-6.53;71.50;98609.81;2266579;78;20939;-82
2022/01/10 05:26:08;;;;;;;84.40;38.27;;;;;;;-6.53;71.41;98617.42;2266419;78;21003;-82
2022/01/10 05:29:09;;;;;;;76.60;34.67;;;;;;;-6.54;71.46;98620.73;2268302;78;20963;-82
2022/01/10 05:32:09;;;;;;;83.13;36.70;;;;;;;-6.57;71.51;98629.40;2270484;78;20999;-82
2022/01/10 05:35:10;;;;;;;81.77;38.37;;;;;;;-6.60;71.23;98635.52;2271886;78;21476;-82
2022/01/10 05:38:11;;;;;;;371.17;60.00;;;;;;;-6.60;71.29;98641.86;2272625;78;21027;-83
2022/01/10 05:41:11;;;;;;;93.17;36.63;;;;;;;-6.62;71.23;98641.25;2273276;78;20989;-82
2022/01/10 05:44:12;;;;;;;83.17;34.37;;;;;;;-6.57;71.64;98647.55;2272292;78;21042;-82
2022/01/10 05:47:12;;;;;;;168.30;69.50;;;;;;;-6.59;71.21;98651.25;2272271;78;20967;-82
2022/01/10 05:50:13;;;;;;;85.53;36.30;;;;;;;-6.65;70.97;98657.14;2272819;78;20970;-83
2022/01/10 05:53:13;;;;;;;102.03;35.40;;;;;;;-6.70;70.96;98652.09;2272104;78;20963;-83
2022/01/10 05:56:15;;;;;;;110.67;39.97;;;;;;;-6.70;71.04;98667.33;2272238;78;20978;-83
2022/01/10 05:59:16;;;;;;;69.93;33.73;;;;;;;-6.69;71.33;98676.72;2272819;78;21764;-83
2022/01/10 06:02:16;;;;;;;76.97;34.40;;;;;;;-6.69;71.00;98681.80;2273135;78;20958;-83
2022/01/10 06:05:17;;;;;;;74.80;33.70;;;;;;;-6.68;71.12;98685.22;2270558;78;20983;-81
2022/01/10 06:08:17;;;;;;;80.70;34.63;;;;;;;-6.62;71.19;98697.98;2270325;78;20900;-81
2022/01/10 06:11:17;;;;;;;63.20;31.83;;;;;;;-6.60;71.27;98700.26;2270928;78;20978;-81
2022/01/10 06:14:18;;;;;;;75.23;33.30;;;;;;;-6.59;71.27;98704.56;2270275;78;20927;-80
2022/01/10 06:17:18;;;;;;;88.63;34.90;;;;;;;-6.61;70.92;98720.06;2270649;78;20962;-83
2022/01/10 06:20:19;;;;;;;73.07;32.47;;;;;;;-6.64;70.68;98727.45;2270423;78;20982;-81
2022/01/10 06:23:19;;;;;;;67.30;31.70;;;;;;;-6.69;70.83;98730.41;2270515;78;20989;-82
2022/01/10 06:26:20;;;;;;;68.67;31.83;;;;;;;-6.73;70.48;98753.41;2270415;78;21683;-82
2022/01/10 06:29:20;;;;;;;67.90;31.50;;;;;;;-6.76;70.58;98754.05;2270598;78;21034;-80
2022/01/10 06:32:21;;;;;;;78.57;31.70;;;;;;;-6.75;70.66;98758.75;2271504;78;20943;-80
2022/01/10 06:35:21;;;;;;;92.63;34.43;;;;;;;-6.76;70.88;98764.59;2271413;78;21014;-80
2022/01/10 06:38:22;;;;;;;118.10;37.07;;;;;;;-6.71;71.56;98771.30;2270696;78;20931;-80
2022/01/10 06:41:23;;;;;;;101.30;38.00;;;;;;;-6.65;71.77;98775.19;2271109;78;21426;-80
2022/01/10 06:44:24;;;;;;;102.97;43.27;;;;;;;-6.57;72.26;98779.20;2271179;78;21046;-80
2022/01/10 06:47:25;;;;;;;97.40;40.27;;;;;;;-6.46;71.84;98789.80;2272446;78;21062;-81
2022/01/10 06:50:25;;;;;;;102.63;43.67;;;;;;;-6.42;72.58;98789.64;2271571;78;21681;-81
2022/01/10 06:53:26;;;;;;;103.13;45.20;;;;;;;-6.32;73.97;98800.12;2271198;78;21037;-81
2022/01/10 06:56:26;;;;;;;111.63;47.57;;;;;;;-6.22;74.38;98800.05;2271212;78;20987;-81
2022/01/10 06:59:27;;;;;;;116.33;48.97;;;;;;;-6.07;75.94;98807.55;2270504;78;21054;-81
2022/01/10 07:02:27;;;;;;;123.53;53.03;;;;;;;-5.89;77.03;98814.44;2271314;78;21600;-81
2022/01/10 07:05:28;;;;;;;116.83;50.60;;;;;;;-5.73;78.14;98816.42;2271341;78;20963;-82
2022/01/10 07:08:32;;;;;;;113.67;49.60;;;;;;;-5.54;77.70;98821.70;2271163;78;20939;-82
2022/01/10 07:11:32;;;;;;;104.53;43.43;;;;;;;-5.41;78.53;98836.21;2270844;78;20999;-82
2022/01/10 07:14:35;;;;;;;102.60;45.10;;;;;;;-5.23;78.15;98836.28;2271301;78;21382;-81
2022/01/10 07:17:37;;;;;;;104.03;44.77;;;;;;;-5.08;78.22;98843.28;2243748;78;20942;-82
2022/01/10 07:20:38;;;;;;;104.73;46.17;;;;;;;-4.96;77.97;98842.89;2270952;78;20930;-80
2022/01/10 07:23:38;;;;;;;121.47;52.20;;;;;;;-4.83;77.95;98851.52;2271221;78;20904;-80
2022/01/10 07:26:39;;;;;;;101.83;43.20;;;;;;;-4.70;77.87;98857.09;2270556;78;20912;-81
2022/01/10 07:29:39;;;;;;;107.00;45.63;;;;;;;-4.55;77.81;98864.93;2267881;78;20998;-81
2022/01/10 07:32:40;;;;;;;126.93;47.73;;;;;;;-4.48;77.90;98869.68;2266368;78;20935;-81
2022/01/10 07:35:40;;;;;;;93.60;43.67;;;;;;;-4.38;77.77;98876.31;2265542;78;20939;-81
2022/01/10 07:38:41;;;;;;;100.17;44.70;;;;;;;-4.29;77.49;98886.78;2265681;78;20935;-81
2022/01/10 07:41:41;;;;;;;95.70;43.13;;;;;;;-4.19;77.29;98894.30;2266896;78;21347;-81
2022/01/10 07:44:42;;;;;;;97.43;44.17;;;;;;;-4.08;77.22;98896.31;2267081;78;21357;-81
2022/01/10 07:47:42;;;;;;;98.73;44.80;;;;;;;-3.94;76.95;98903.25;2266899;78;21011;-80
2022/01/10 07:50:43;;;;;;;94.60;42.63;;;;;;;-3.83;76.82;98908.20;2267243;78;20971;-80
2022/01/10 07:53:43;;;;;;;95.07;43.37;;;;;;;-3.69;76.58;98913.85;2266811;78;20947;-81
2022/01/10 07:56:44;;;;;;;91.57;43.47;;;;;;;-3.57;76.46;98917.23;2266614;78;20927;-82
2022/01/10 07:59:47;;;;;;;100.43;43.57;;;;;;;-3.45;76.19;98923.59;2265720;78;20959;-79
2022/01/10 08:02:48;;;;;;;93.97;42.70;;;;;;;-3.34;76.14;98914.59;2267015;78;20995;-80
2022/01/10 08:05:48;;;;;;;104.83;46.47;;;;;;;-3.24;75.90;98922.08;2267109;78;21006;-79
2022/01/10 08:08:49;;;;;;;87.33;41.30;;;;;;;-3.15;75.73;98924.36;2267337;78;20911;-79
2022/01/10 08:11:49;;;;;;;95.97;42.60;;;;;;;-3.06;75.54;98922.80;2267383;78;20900;-79
2022/01/10 08:17:52;;;;;;;87.73;38.57;;;;;;;-2.89;75.33;98938.45;2235622;78;20943;-80
2022/01/10 08:20:52;;;;;;;102.63;49.27;;;;;;;-2.78;75.23;98951.91;2267380;78;20947;-80
2022/01/10 08:23:53;;;;;;;92.10;40.20;;;;;;;-2.70;75.18;98960.08;2267208;78;21015;-80
2022/01/10 08:26:53;;;;;;;86.73;40.50;;;;;;;-2.59;75.14;98965.53;2267240;78;20903;-81
2022/01/10 08:29:54;;;;;;;86.30;41.80;;;;;;;-2.48;75.14;98973.89;2266821;78;21443;-81
2022/01/10 08:32:54;;;;;;;84.57;39.80;;;;;;;-2.36;75.16;98983.62;2266636;78;21382;-80
2022/01/10 08:35:55;;;;;;;87.67;42.17;;;;;;;-2.24;74.85;98983.12;2266328;78;20963;-81
2022/01/10 08:38:55;;;;;;;82.43;38.57;;;;;;;-2.16;74.96;98989.61;2267038;78;20978;-81
2022/01/10 08:41:56;;;;;;;87.87;39.93;;;;;;;-2.04;75.07;98991.66;2266939;78;20940;-80
2022/01/10 08:44:56;;;;;;;72.07;34.77;;;;;;;-1.98;75.09;98989.89;2266354;78;20943;-81
2022/01/10 08:47:57;;;;;;;68.27;33.30;;;;;;;-1.89;75.22;98999.42;2265162;78;20979;-81
2022/01/10 08:50:57;;;;;;;73.97;32.97;;;;;;;-1.80;75.14;98992.70;2265653;78;20963;-81
2022/01/10 08:53:58;;;;;;;73.03;33.50;;;;;;;-1.67;75.25;99005.11;2265620;78;20947;-81
2022/01/10 08:56:58;;;;;;;69.87;32.83;;;;;;;-1.51;75.13;99012.06;2265255;78;21662;-82
2022/01/10 08:59:59;;;;;;;66.70;31.63;;;;;;;-1.36;75.08;99012.11;2266291;78;21413;-81
2022/01/10 09:03:01;;;;;;;74.33;35.87;;;;;;;-1.27;74.53;99009.22;2266976;78;20991;-80
2022/01/10 09:06:01;;;;;;;76.60;35.43;;;;;;;-1.20;74.64;99019.05;2266485;78;20966;-80
2022/01/10 09:09:03;;;;;;;117.57;36.67;;;;;;;-1.11;74.17;99015.75;2266750;78;20936;-81
2022/01/10 09:12:03;;;;;;;71.40;33.90;;;;;;;-1.12;73.86;99020.39;2266539;78;20959;-81
2022/01/10 09:15:04;;;;;;;72.27;33.43;;;;;;;-1.08;74.14;99028.74;2267144;78;20982;-81
2022/01/10 09:18:04;;;;;;;86.27;39.97;;;;;;;-0.98;74.21;99028.11;2266643;78;20951;-81
2022/01/10 09:21:05;;;;;;;72.67;35.13;;;;;;;-0.86;74.14;99029.66;2266865;78;20908;-81
2022/01/10 09:24:06;;;;;;;96.23;44.87;;;;;;;-0.78;73.99;99029.72;2267086;78;20995;-81
2022/01/10 09:27:07;;;;;;;105.07;46.97;;;;;;;-0.78;73.77;99041.25;2266752;78;21015;-81
2022/01/10 09:30:07;;;;;;;91.43;44.23;;;;;;;-0.76;73.67;99052.08;2268649;78;20975;-82
2022/01/10 09:33:08;;;;;;;124.97;52.17;;;;;;;-0.73;73.38;99053.54;2270583;78;21054;-82
2022/01/10 09:36:08;;;;;;;104.07;47.03;;;;;;;-0.78;73.47;99062.64;2271044;78;21354;-82
2022/01/10 09:39:09;;;;;;;116.27;51.10;;;;;;;-0.82;73.46;99071.33;2271147;78;20975;-80
2022/01/10 09:42:12;;;;;;;115.27;46.67;;;;;;;-0.86;73.62;99074.11;2271536;78;20931;-81
2022/01/10 09:45:12;;;;;;;115.10;46.90;;;;;;;-0.90;73.61;99080.20;2271476;78;21058;-83
2022/01/10 09:48:12;;;;;;;90.40;38.97;;;;;;;-0.98;73.88;99078.06;2272038;78;20935;-81
2022/01/10 09:51:13;;;;;;;82.97;40.43;;;;;;;-1.01;73.97;99080.84;2271797;78;20950;-82
2022/01/10 09:54:13;;;;;;;84.07;39.80;;;;;;;-1.00;74.04;99084.78;2272289;78;20927;-82
2022/01/10 09:57:14;;;;;;;77.93;39.93;;;;;;;-1.00;74.17;99091.19;2272439;78;20998;-83
2022/01/10 10:00:15;;;;;;;104.30;43.97;;;;;;;-1.01;74.12;99090.70;2272413;78;21017;-82
2022/01/10 10:03:16;;;;;;;84.13;37.67;;;;;;;-1.06;74.26;99102.73;2272352;78;20991;-83
2022/01/10 10:06:16;;;;;;;77.23;35.77;;;;;;;-1.07;74.42;99103.53;2272449;78;20979;-82
2022/01/10 10:09:17;;;;;;;65.43;32.47;;;;;;;-1.06;74.44;99105.30;2271994;78;21349;-81
2022/01/10 10:12:18;;;;;;;67.47;33.77;;;;;;;-1.01;74.58;99105.19;2271789;78;20967;-81
2022/01/10 10:15:20;;;;;;;73.47;32.47;;;;;;;-0.92;74.48;99108.70;2271027;78;21342;-83
2022/01/10 10:18:21;;;;;;;73.03;36.87;;;;;;;-0.92;74.42;99123.68;2271125;78;20995;-83
2022/01/10 10:21:21;;;;;;;72.23;34.93;;;;;;;-0.89;74.55;99125.15;2271466;78;20932;-81
2022/01/10 10:24:21;;;;;;;75.10;35.97;;;;;;;-0.92;74.47;99126.64;2271817;78;20987;-81
2022/01/10 10:27:22;;;;;;;110.83;35.77;;;;;;;-0.94;74.42;99124.37;2271674;78;20964;-84
2022/01/10 10:30:23;;;;;;;75.03;34.47;;;;;;;-1.02;74.43;99126.08;2270251;78;21402;-81
2022/01/10 10:33:25;;;;;;;66.50;33.07;;;;;;;-0.98;74.76;99125.87;2268052;78;21394;-81
2022/01/10 10:36:26;;;;;;;68.87;33.57;;;;;;;-0.92;74.66;99124.96;2267996;78;21733;-82
2022/01/10 10:39:28;;;;;;;64.80;33.60;;;;;;;-0.85;74.67;99130.98;2236032;78;20978;-81
2022/01/10 10:42:29;;;;;;;61.23;30.63;;;;;;;-0.71;74.61;99129.25;2267720;78;21648;-81
2022/01/10 10:45:29;;;;;;;64.63;32.83;;;;;;;-0.59;74.64;99131.27;2267329;78;20998;-80
2022/01/10 10:48:30;;;;;;;60.03;31.17;;;;;;;-0.42;74.48;99139.96;2268395;78;20970;-82
2022/01/10 10:51:31;;;;;;;57.40;30.60;;;;;;;-0.39;74.14;99138.86;2268696;78;21382;-81
2022/01/10 10:54:32;;;;;;;66.50;32.20;;;;;;;-0.40;73.96;99136.70;2268125;78;20928;-82
2022/01/10 10:57:32;;;;;;;63.47;32.20;;;;;;;-0.41;73.83;99146.47;2268111;78;20947;-82
2022/01/10 11:00:33;;;;;;;69.57;32.93;;;;;;;-0.44;74.14;99152.70;2267478;78;21344;-84
2022/01/10 11:03:34;;;;;;;66.30;33.83;;;;;;;-0.39;74.37;99158.98;2267445;78;20939;-83
2022/01/10 11:06:36;;;;;;;61.07;32.33;;;;;;;-0.37;74.11;99154.83;2266854;78;21034;-81
2022/01/10 11:09:37;;;;;;;60.60;31.23;;;;;;;-0.38;73.96;99162.44;2267225;78;20928;-81
2022/01/10 11:12:40;;;;;;;62.73;31.23;;;;;;;-0.41;74.11;99165.70;2267855;78;20995;-82
2022/01/10 11:15:40;;;;;;;58.63;30.10;;;;;;;-0.39;74.18;99170.92;2265098;78;21378;-82
2022/01/10 11:18:40;;;;;;;68.77;32.30;;;;;;;-0.40;74.29;99174.28;2266079;78;20948;-82
2022/01/10 11:21:41;;;;;;;60.30;31.30;;;;;;;-0.43;74.32;99173.70;2265913;78;20923;-80
2022/01/10 11:24:46;;;;;;;68.27;33.57;;;;;;;-0.27;74.97;99171.65;2265682;78;20971;-80
2022/01/10 11:27:46;;;;;;;64.90;33.80;;;;;;;-0.24;74.67;99174.80;2265835;78;20970;-81
2022/01/10 11:30:47;;;;;;;61.43;32.67;;;;;;;-0.27;74.55;99183.59;2268013;78;21065;-81
2022/01/10 11:33:47;;;;;;;69.20;34.70;;;;;;;-0.32;74.39;99179.47;2271156;78;20978;-81
2022/01/10 11:36:49;;;;;;;59.47;31.47;;;;;;;-0.40;74.45;99176.84;2271572;78;20994;-82
2022/01/10 11:39:49;;;;;;;60.43;32.40;;;;;;;-0.48;76.21;99188.33;2271950;78;21414;-83
2022/01/10 11:42:50;;;;;;;59.60;33.00;;;;;;;-0.50;74.79;99193.76;2271436;78;20942;-82
2022/01/10 11:45:50;;;;;;;63.67;32.33;;;;;;;-0.57;74.85;99198.91;2271257;78;21155;-82
2022/01/10 11:48:51;;;;;;;63.60;34.07;;;;;;;-0.67;75.07;99204.27;2271832;78;20935;-82
2022/01/10 11:51:51;;;;;;;64.03;31.90;;;;;;;-0.77;75.31;99207.06;2271760;78;20975;-82
2022/01/10 11:54:54;;;;;;;65.73;34.20;;;;;;;-0.85;75.62;99210.44;2271559;78;20998;-82
2022/01/10 11:57:54;;;;;;;61.60;33.33;;;;;;;-0.85;75.93;99212.11;2271510;78;21024;-82
2022/01/10 12:00:55;;;;;;;67.20;33.40;;;;;;;-0.87;75.86;99211.98;2270708;78;20982;-82
2022/01/10 12:03:55;;;;;;;58.10;32.20;;;;;;;-0.89;75.98;99211.00;2271288;78;20943;-82
2022/01/10 12:06:56;;;;;;;74.53;39.17;;;;;;;-0.86;76.19;99217.63;2270582;78;20955;-81
2022/01/10 12:09:58;;;;;;;167.20;72.67;;;;;;;-0.87;76.18;99222.23;2270574;78;20951;-81
2022/01/10 12:12:58;;;;;;;133.17;57.63;;;;;;;-0.87;76.50;99229.03;2270577;78;21455;-82
2022/01/10 12:16:00;;;;;;;101.37;47.10;;;;;;;-0.84;76.70;99231.42;2270727;78;20990;-82
2022/01/10 12:19:00;;;;;;;80.30;39.10;;;;;;;-0.82;76.62;99228.56;2270726;78;21431;-83
2022/01/10 12:22:01;;;;;;;66.63;34.70;;;;;;;-0.79;76.71;99237.73;2271315;78;20999;-82
2022/01/10 12:25:01;;;;;;;65.20;33.50;;;;;;;-0.77;76.79;99239.98;2271763;78;20994;-82
2022/01/10 12:28:04;;;;;;;66.60;32.80;;;;;;;-0.80;76.93;99243.64;2271996;78;20954;-82
2022/01/10 12:31:04;;;;;;;75.27;35.27;;;;;;;-0.76;77.11;99249.84;2271645;78;21086;-83
2022/01/10 12:34:05;;;;;;;71.13;35.83;;;;;;;-0.72;77.19;99255.27;2271952;78;21400;-83
2022/01/10 12:37:05;;;;;;;66.27;35.13;;;;;;;-0.69;77.38;99258.41;2271729;78;21484;-83
2022/01/10 12:40:06;;;;;;;72.37;36.77;;;;;;;-0.69;77.22;99254.17;2270767;78;21434;-83
2022/01/10 12:43:06;;;;;;;93.07;40.80;;;;;;;-0.66;77.23;99268.46;2270495;78;20947;-83
2022/01/10 12:46:15;;;;;;;85.23;38.80;;;;;;;-0.62;77.23;99273.78;2271224;78;20967;-84
2022/01/10 12:49:16;;;;;;;59.80;32.73;;;;;;;-0.66;77.29;99282.56;2271623;78;20942;-79
2022/01/10 12:52:17;;;;;;;63.23;32.93;;;;;;;-0.66;77.30;99286.41;2271347;78;20990;-83
2022/01/10 12:55:17;;;;;;;65.10;34.77;;;;;;;-0.64;77.50;99294.19;2271924;78;21010;-84
2022/01/10 12:58:18;;;;;;;62.50;32.13;;;;;;;-0.61;77.44;99287.09;2272106;78;20935;-83
2022/01/10 13:01:18;;;;;;;53.30;30.40;;;;;;;-0.56;77.54;99292.11;2271516;78;21002;-84
2022/01/10 13:04:19;;;;;;;50.13;27.60;;;;;;;-0.53;77.44;99302.55;2271008;78;21502;-83
2022/01/10 13:07:19;;;;;;;56.47;30.23;;;;;;;-0.51;77.29;99308.27;2271617;78;21069;-83
2022/01/10 13:10:29;;;;;;;58.17;34.63;;;;;;;-0.32;77.64;99311.58;2270743;78;21398;-84
2022/01/10 13:13:39;;;;;;;56.93;29.83;;;;;;;-0.32;77.16;99312.46;2270451;78;20955;-82
2022/01/10 13:16:48;;;;;;;53.00;31.00;;;;;;;-0.32;77.01;99319.27;2272288;78;20936;-83
2022/01/10 13:19:49;;;;;;;57.33;30.77;;;;;;;-0.29;76.96;99326.27;2272644;78;21548;-87
2022/01/10 13:22:59;;;;;;;62.93;32.77;;;;;;;-0.34;76.73;99337.13;2272600;78;20935;-82
2022/01/10 13:26:02;;;;;;;64.53;33.57;;;;;;;-0.33;76.90;99340.59;2273023;78;21009;-85
2022/01/10 13:29:04;;;;;;;51.13;29.60;;;;;;;-0.30;76.93;99340.77;2273137;78;20971;-84
2022/01/10 13:32:04;;;;;;;53.03;30.70;;;;;;;-0.30;76.95;99351.44;2272013;78;21075;-85
2022/01/10 13:35:07;;;;;;;49.20;27.80;;;;;;;-0.29;76.91;99356.66;2271840;78;21336;-84
2022/01/10 13:38:10;;;;;;;48.23;27.37;;;;;;;-0.28;76.88;99362.28;2271847;78;21003;-84
2022/01/10 13:41:10;;;;;;;47.93;26.73;;;;;;;-0.29;77.03;99375.90;2272217;78;20986;-84
2022/01/10 13:44:10;;;;;;;48.37;27.57;;;;;;;-0.25;77.02;99379.14;2272909;78;20935;-83
2022/01/10 13:47:13;;;;;;;54.63;30.10;;;;;;;-0.26;76.87;99379.05;2271876;78;20935;-84
2022/01/10 13:50:13;;;;;;;76.07;45.33;;;;;;;-0.29;76.99;99382.70;2271454;78;21047;-84
2022/01/10 13:53:14;;;;;;;59.43;34.17;;;;;;;-0.25;77.06;99393.66;2272888;78;20982;-84
2022/01/10 13:56:18;;;;;;;46.27;27.27;;;;;;;-0.26;76.97;99403.03;2244177;78;21361;-84
2022/01/10 13:59:18;;;;;;;37.30;23.37;;;;;;;-0.30;76.74;99407.87;2270637;78;21922;-83
2022/01/10 14:02:19;;;;;;;43.77;26.73;;;;;;;-0.32;76.78;99409.94;2270011;78;21033;-83